createdAt,value
2018-02-21T11:18:58.590Z,23.4
2018-02-21T11:19:30.728Z,23.47
2018-02-21T11:20:02.792Z,23.59
2018-02-21T11:20:34.929Z,23.57
2018-02-21T11:21:07.872Z,23.67
2018-02-21T11:22:59.587Z,23.97
2018-02-21T11:23:31.697Z,24.03
2018-02-21T11:25:23.490Z,24.3
2018-02-21T11:27:15.160Z,24.54
2018-02-21T11:27:47.249Z,24.67
2018-02-21T11:28:19.367Z,24.77
2018-02-21T11:30:11.773Z,25.02
2018-02-21T11:30:44.362Z,25.11
2018-02-21T11:31:16.427Z,25.17
2018-02-21T11:31:48.569Z,25.37
2018-02-21T11:32:20.622Z,25.33
2018-02-21T11:32:52.693Z,25.42
2018-02-21T11:34:44.243Z,25.82
2018-02-21T11:35:16.311Z,25.89
2018-02-21T11:35:48.371Z,25.91
2018-02-21T11:36:20.416Z,26.01
2018-02-21T11:36:52.533Z,26.07
2018-02-21T11:37:24.598Z,26.17
2018-02-21T11:37:56.947Z,26.23
2018-02-21T11:38:29.171Z,26.32
2018-02-21T11:39:01.775Z,26.39
2018-02-21T11:39:33.887Z,26.42
2018-02-21T11:40:05.978Z,26.52
2018-02-21T11:40:38.028Z,26.57
2018-02-21T11:41:10.207Z,26.63
2018-02-21T11:43:01.985Z,26.96
2018-02-21T11:43:34.086Z,27.01
2018-02-21T11:44:06.174Z,27.09
2018-02-21T11:44:38.202Z,27.16
2018-02-21T11:45:10.310Z,27.33
2018-02-21T11:45:42.407Z,27.31
2018-02-21T11:47:33.755Z,27.46
2018-02-21T11:48:05.879Z,27.62
2018-02-21T11:48:37.988Z,27.75
2018-02-21T11:49:10.022Z,27.8
2018-02-21T11:51:01.484Z,28.01
2018-02-21T11:51:33.571Z,27.99
2018-02-21T11:52:05.656Z,28.01
2018-02-21T11:52:37.750Z,28.16
2018-02-21T11:53:09.821Z,28.24
2018-02-21T11:55:01.444Z,28.43
2018-02-21T11:55:33.555Z,28.46
2018-02-21T11:56:05.645Z,28.53
2018-02-21T11:56:37.728Z,28.53
2018-02-21T11:57:09.819Z,28.61
2018-02-21T11:57:41.954Z,28.7
2018-02-21T11:58:13.990Z,28.75
2018-02-21T11:58:46.076Z,28.75
2018-02-21T11:59:17.917Z,28.79
2018-02-21T11:59:49.973Z,28.85
2018-02-21T12:00:22.017Z,28.97
2018-02-21T12:00:54.228Z,29.01
2018-02-21T12:01:26.405Z,29.1
2018-02-21T12:01:58.557Z,29.06
2018-02-21T12:02:30.650Z,29.1
2018-02-21T12:03:02.727Z,29.18
2018-02-21T12:03:34.804Z,29.24
2018-02-21T12:04:06.873Z,29.28
2018-02-21T12:04:38.953Z,29.35
2018-02-21T12:06:30.585Z,29.48
2018-02-21T12:07:02.722Z,29.48
2018-02-21T12:07:35.020Z,29.54
2018-02-21T12:08:07.493Z,29.63
2018-02-21T12:08:39.576Z,29.69
2018-02-21T12:09:11.655Z,29.72
2018-02-21T12:12:22.691Z,29.95
2018-02-21T12:12:54.767Z,30.02
2018-02-21T12:14:46.089Z,30.1
2018-02-21T12:16:37.710Z,30.25
2018-02-21T12:18:29.111Z,30.44
2018-02-21T12:19:01.202Z,30.48
2018-02-21T12:19:33.379Z,30.42
2018-02-21T12:20:05.479Z,30.45
2018-02-21T12:21:57.281Z,30.6
2018-02-21T12:22:29.371Z,30.7
2018-02-21T12:23:01.464Z,30.75
2018-02-21T12:23:33.562Z,30.7
2018-02-21T12:24:05.608Z,30.78
2018-02-21T12:24:37.677Z,30.88
2018-02-21T12:25:09.742Z,30.88
2018-02-21T12:25:41.805Z,30.88
2018-02-21T12:26:13.880Z,30.91
2018-02-21T12:26:46.028Z,30.84
2018-02-21T12:27:18.118Z,30.93
2018-02-21T12:27:50.208Z,30.88
2018-02-21T12:28:22.283Z,30.99
2018-02-21T12:28:54.368Z,30.96
2018-02-21T12:29:26.506Z,31.06
2018-02-21T12:29:58.576Z,31.06
2018-02-21T12:30:30.644Z,31.04
2018-02-21T12:31:02.739Z,31.06
2018-02-21T12:31:34.852Z,31.07
2018-02-21T12:32:06.942Z,31.07
2018-02-21T12:33:58.467Z,31.04
2018-02-21T12:34:30.599Z,31.07
2018-02-21T12:35:02.655Z,31.13
2018-02-21T12:35:34.698Z,31.04
2018-02-21T12:36:06.747Z,31.04
2018-02-21T12:36:38.780Z,31.03
2018-02-21T12:37:10.882Z,30.94
2018-02-21T12:39:02.473Z,30.85
2018-02-21T12:39:34.552Z,30.91
2018-02-21T12:40:06.640Z,30.91
2018-02-21T12:40:38.730Z,30.81
2018-02-21T12:41:10.818Z,30.75
2018-02-21T12:41:42.959Z,30.7
2018-02-21T12:42:15.029Z,30.69
2018-02-21T12:42:47.128Z,30.64
2018-02-21T12:43:19.187Z,30.59
2018-02-21T12:43:51.259Z,30.51
2018-02-21T12:44:23.364Z,30.45
2018-02-21T12:44:55.436Z,30.42
2018-02-21T12:45:27.566Z,30.37
2018-02-21T12:45:59.675Z,30.37
2018-02-21T12:46:31.737Z,30.19
2018-02-21T12:47:03.882Z,30.24
2018-02-21T12:47:35.926Z,30.14
2018-02-21T12:48:07.996Z,30.1
2018-02-21T12:48:40.077Z,30.06
2018-02-21T12:49:12.122Z,30.03
2018-02-21T12:49:44.199Z,29.91
2018-02-21T12:50:16.296Z,29.94
2018-02-21T12:50:48.377Z,29.91
2018-02-21T12:52:40.031Z,29.88
2018-02-21T12:53:12.166Z,29.87
2018-02-21T12:55:03.449Z,30
2018-02-21T12:55:35.542Z,29.97
2018-02-21T12:56:07.592Z,30.07
2018-02-21T12:56:39.694Z,30.07
2018-02-21T12:57:11.791Z,30.06
2018-02-21T12:57:43.877Z,30.04
2018-02-21T12:58:15.967Z,29.95
2018-02-21T12:58:48.690Z,30.02
2018-02-21T12:59:20.827Z,30.09
2018-02-21T12:59:52.872Z,30.13
2018-02-21T13:00:25.004Z,30.11
2018-02-21T13:02:16.993Z,30.18
2018-02-21T13:02:49.129Z,30.22
2018-02-21T13:03:21.462Z,30.35
2018-02-21T13:03:56.540Z,30.32
2018-02-21T13:04:31.341Z,30.37
2018-02-21T13:05:06.010Z,30.31
2018-02-21T13:05:38.225Z,30.31
2018-02-21T13:06:11.908Z,30.42
2018-02-21T13:06:47.156Z,30.49
2018-02-21T13:07:45.742Z,30.51
2018-02-21T13:08:19.009Z,30.54
2018-02-21T13:08:51.110Z,30.57
2018-02-21T13:09:23.210Z,30.6
2018-02-21T13:09:55.322Z,30.66
2018-02-21T13:10:27.350Z,30.69
2018-02-21T13:11:01.087Z,30.64
2018-02-21T13:11:33.859Z,30.48
2018-02-21T13:12:05.937Z,30.52
2018-02-21T13:12:38.008Z,30.51
2018-02-21T13:13:10.121Z,30.54
2018-02-21T13:13:42.195Z,30.59
2018-02-21T13:15:33.646Z,30.59
2018-02-21T13:16:05.708Z,30.42
2018-02-21T13:16:37.785Z,30.35
2018-02-21T13:17:09.865Z,30.31
2018-02-21T13:17:41.960Z,30.29
2018-02-21T13:18:14.027Z,30.21
2018-02-21T13:18:46.106Z,30.21
2018-02-21T13:19:18.233Z,30.18
2018-02-21T13:19:50.325Z,30.39
2018-02-21T13:20:22.368Z,30.47
2018-02-21T13:20:54.474Z,30.54
2018-02-21T13:21:26.542Z,30.56
2018-02-21T13:21:58.622Z,30.63
2018-02-21T13:22:30.698Z,30.63
2018-02-21T13:23:02.761Z,30.64
2018-02-21T13:24:54.335Z,30.52
2018-02-21T13:25:26.433Z,30.48
2018-02-21T13:25:58.471Z,30.45
2018-02-21T13:27:50.172Z,30.37
2018-02-21T13:28:22.266Z,30.29
2018-02-21T13:28:54.360Z,30.24
2018-02-21T13:30:45.697Z,30.19
2018-02-21T13:31:17.843Z,30.18
2018-02-21T13:31:49.953Z,30.18
2018-02-21T13:32:22.133Z,30.21
2018-02-21T13:32:54.215Z,30.13
2018-02-21T13:33:26.347Z,30.11
2018-02-21T13:33:58.443Z,30.1
2018-02-21T13:34:30.517Z,30.02
2018-02-21T13:35:09.570Z,29.97
2018-02-21T13:35:41.632Z,30.02
2018-02-21T13:36:13.724Z,29.97
2018-02-21T13:36:45.830Z,29.98
2018-02-21T13:37:18.013Z,30.09
2018-02-21T13:37:50.077Z,30.14
2018-02-21T13:38:22.226Z,30.14
2018-02-21T13:38:54.277Z,30.26
2018-02-21T13:39:26.433Z,30.22
2018-02-21T13:39:58.567Z,30.22
2018-02-21T13:40:30.670Z,30.11
2018-02-21T13:42:22.094Z,30.14
2018-02-21T13:42:54.205Z,30.09
2018-02-21T13:43:26.303Z,30
2018-02-21T13:43:58.397Z,30.02
2018-02-21T13:44:30.464Z,29.98
2018-02-21T13:45:09.056Z,29.89
2018-02-21T13:45:41.142Z,29.85
2018-02-21T13:46:13.233Z,29.88
2018-02-21T13:46:45.384Z,29.91
2018-02-21T13:47:17.518Z,29.94
2018-02-21T13:47:49.646Z,29.92
2018-02-21T13:48:21.760Z,29.95
2018-02-21T13:48:53.882Z,30.03
2018-02-21T13:49:26.031Z,30.07
2018-02-21T13:49:58.145Z,30.11
2018-02-21T13:50:30.230Z,30.1
2018-02-21T13:51:02.362Z,30.25
2018-02-21T13:52:53.786Z,30.11
2018-02-21T13:53:25.909Z,30.07
2018-02-21T13:53:57.989Z,30.02
2018-02-21T13:54:30.166Z,29.97
2018-02-21T13:55:02.265Z,29.95
2018-02-21T13:55:34.398Z,29.85
2018-02-21T13:56:06.525Z,29.81
2018-02-21T13:57:58.036Z,29.87
2018-02-21T13:59:49.677Z,30.07
2018-02-21T14:00:21.762Z,30.16
2018-02-21T14:00:53.867Z,30.26
2018-02-21T14:01:25.988Z,30.13
2018-02-21T14:03:17.720Z,30.34
2018-02-21T14:03:49.806Z,30.34
2018-02-21T14:04:21.909Z,30.31
2018-02-21T14:04:54.003Z,30.26
2018-02-21T14:06:46.278Z,29.91
2018-02-21T14:07:18.405Z,29.88
2018-02-21T14:07:50.508Z,29.91
2018-02-21T14:08:22.683Z,29.98
2018-02-21T14:08:54.971Z,30.07
2018-02-21T14:09:27.174Z,30.19
2018-02-21T14:09:59.240Z,30.21
2018-02-21T14:11:51.076Z,30.44
2018-02-21T14:12:23.180Z,30.52
2018-02-21T14:14:14.712Z,30.59
2018-02-21T14:16:06.054Z,30.57
2018-02-21T14:16:38.142Z,30.56
2018-02-21T14:18:29.551Z,30.63
2018-02-21T14:19:01.613Z,30.75
2018-02-21T14:19:33.736Z,30.75
2018-02-21T14:20:05.834Z,30.79
2018-02-21T14:21:57.567Z,30.91
2018-02-21T14:22:29.736Z,30.91
2018-02-21T14:23:01.858Z,30.93
2018-02-21T14:23:33.975Z,30.79
2018-02-21T14:24:06.087Z,30.75
2018-02-21T14:24:38.191Z,30.73
2018-02-21T14:25:10.309Z,30.64
2018-02-21T14:25:42.406Z,30.63
2018-02-21T14:26:14.508Z,30.57
2018-02-21T14:28:06.303Z,30.4
2018-02-21T14:28:38.385Z,30.39
2018-02-21T14:29:10.584Z,30.29
2018-02-21T14:29:42.665Z,30.26
2018-02-21T14:30:14.780Z,30.16
2018-02-21T14:30:46.852Z,30.11
2018-02-21T14:31:18.927Z,30.03
2018-02-21T14:31:51.046Z,30.06
2018-02-21T14:32:23.202Z,29.87
2018-02-21T14:32:55.308Z,29.87
2018-02-21T14:33:28.258Z,29.81
2018-02-21T14:35:19.657Z,29.6
2018-02-21T14:35:51.758Z,29.57
2018-02-21T14:36:23.879Z,29.5
2018-02-21T14:36:55.941Z,29.36
2018-02-21T14:38:47.731Z,29.26
2018-02-21T14:39:19.828Z,29.24
2018-02-21T14:39:51.916Z,29.14
2018-02-21T14:41:43.575Z,28.95
2018-02-21T14:42:16.277Z,28.97
2018-02-21T14:42:48.329Z,28.88
2018-02-21T14:44:40.222Z,28.75
2018-02-21T14:45:12.326Z,28.72
2018-02-21T14:45:44.433Z,28.58
2018-02-21T14:47:35.899Z,28.45
2018-02-21T14:48:07.993Z,28.46
2018-02-21T14:48:40.110Z,28.33
2018-02-21T14:49:12.214Z,28.3
2018-02-21T14:49:44.314Z,28.27
2018-02-21T14:50:16.411Z,28.23
2018-02-21T14:50:48.512Z,28.26
2018-02-21T14:51:20.577Z,28.17
2018-02-21T14:51:52.665Z,28.24
2018-02-21T14:52:24.780Z,28.06
2018-02-21T14:52:56.863Z,28.05
2018-02-21T14:53:28.966Z,28.08
2018-02-21T14:54:01.073Z,27.98
2018-02-21T14:55:52.555Z,27.87
2018-02-21T14:56:24.632Z,27.83
2018-02-21T14:56:56.746Z,27.79
2018-02-21T14:57:28.813Z,27.68
2018-02-21T14:58:00.930Z,27.74
2018-02-21T14:58:33.032Z,27.57
2018-02-21T14:59:05.141Z,27.57
2018-02-21T14:59:37.248Z,27.65
2018-02-21T15:00:09.362Z,27.59
2018-02-21T15:00:41.446Z,27.52
2018-02-21T15:01:13.559Z,27.53
2018-02-21T15:03:05.153Z,27.42
2018-02-21T15:03:37.265Z,27.28
2018-02-21T15:04:09.373Z,27.26
2018-02-21T15:04:41.469Z,27.31
2018-02-21T15:05:13.553Z,27.27
2018-02-21T15:05:45.643Z,27.28
2018-02-21T15:07:37.413Z,27.04
2018-02-21T15:08:09.516Z,27.04
2018-02-21T15:08:41.593Z,27.01
2018-02-21T15:09:13.714Z,26.94
2018-02-21T15:09:45.791Z,26.96
2018-02-21T15:10:17.904Z,26.96
2018-02-21T15:10:50.018Z,26.86
2018-02-21T15:11:22.126Z,26.91
2018-02-21T15:11:54.230Z,26.86
2018-02-21T15:12:26.333Z,26.78
2018-02-21T15:12:58.440Z,26.81
2018-02-21T15:13:30.554Z,26.69
2018-02-21T15:14:02.660Z,26.74
2018-02-21T15:14:34.746Z,26.72
2018-02-21T15:15:06.860Z,26.64
2018-02-21T15:15:38.973Z,26.63
2018-02-21T15:16:11.088Z,26.64
2018-02-21T15:16:43.192Z,26.57
2018-02-21T15:17:15.278Z,26.53
2018-02-21T15:17:47.387Z,26.5
2018-02-21T15:18:19.466Z,26.5
2018-02-21T15:18:51.593Z,26.42
2018-02-21T15:19:23.696Z,26.39
2018-02-21T15:19:55.803Z,26.32
2018-02-21T15:20:27.913Z,26.35
2018-02-21T15:21:00.025Z,26.44
2018-02-21T15:21:32.120Z,26.32
2018-02-21T15:22:04.212Z,26.32
2018-02-21T15:22:36.327Z,26.35
2018-02-21T15:23:08.436Z,26.26
2018-02-21T15:23:40.505Z,26.32
2018-02-21T15:24:12.622Z,26.2
2018-02-21T15:26:04.424Z,26.11
2018-02-21T15:26:36.518Z,26.15
2018-02-21T15:27:08.642Z,26.07
2018-02-21T15:27:40.761Z,26.11
2018-02-21T15:28:12.881Z,26.03
2018-02-21T15:28:45.000Z,26
2018-02-21T15:29:17.096Z,26.06
2018-02-21T15:29:49.197Z,25.94
2018-02-21T15:30:21.320Z,25.88
2018-02-21T15:30:53.432Z,25.91
2018-02-21T15:31:25.529Z,25.84
2018-02-21T15:31:57.651Z,25.86
2018-02-21T15:32:29.735Z,25.89
2018-02-21T15:33:01.832Z,25.85
2018-02-21T15:33:33.922Z,25.76
2018-02-21T15:34:06.026Z,25.79
2018-02-21T15:34:38.123Z,25.7
2018-02-21T15:35:10.288Z,25.76
2018-02-21T15:37:01.931Z,25.63
2018-02-21T15:37:34.047Z,25.63
2018-02-21T15:38:06.163Z,25.64
2018-02-21T15:39:57.933Z,25.56
2018-02-21T15:40:30.042Z,25.49
2018-02-21T15:42:21.852Z,25.39
2018-02-21T15:42:53.939Z,25.42
2018-02-21T15:43:26.018Z,25.45
2018-02-21T15:43:58.104Z,25.44
2018-02-21T15:44:30.222Z,25.41
2018-02-21T15:45:02.307Z,25.38
2018-02-21T15:45:34.400Z,25.39
2018-02-21T15:46:06.517Z,25.34
2018-02-21T15:46:38.625Z,25.34
2018-02-21T15:47:10.774Z,25.24
2018-02-21T15:47:42.831Z,25.27
2018-02-21T15:49:34.361Z,25.19
2018-02-21T15:50:06.461Z,25.22
2018-02-21T15:50:38.562Z,25.14
2018-02-21T15:52:30.112Z,25.04
2018-02-21T15:53:02.217Z,25.02
2018-02-21T15:53:34.316Z,25.12
2018-02-21T15:54:06.438Z,25.02
2018-02-21T15:54:38.541Z,25.02
2018-02-21T15:55:10.643Z,25.09
2018-02-21T15:55:42.739Z,25.05
2018-02-21T15:56:14.845Z,24.97
2018-02-21T15:56:47.004Z,24.92
2018-02-21T15:57:19.099Z,25
2018-02-21T15:57:51.206Z,24.92
2018-02-21T15:58:23.306Z,25
2018-02-21T15:58:55.421Z,24.92
2018-02-21T15:59:27.524Z,24.86
2018-02-21T15:59:59.626Z,24.86
2018-02-21T16:00:31.718Z,24.89
2018-02-21T16:01:03.799Z,24.74
2018-02-21T16:01:35.904Z,24.78
2018-02-21T16:03:27.636Z,24.75
2018-02-21T16:03:59.726Z,24.71
2018-02-21T16:05:51.366Z,24.71
2018-02-21T16:06:23.458Z,24.71
2018-02-21T16:06:55.507Z,24.71
2018-02-21T16:07:27.617Z,24.66
2018-02-21T16:07:59.735Z,24.63
2018-02-21T16:09:51.188Z,24.55
2018-02-21T16:10:23.293Z,24.55
2018-02-21T16:10:55.408Z,24.55
2018-02-21T16:11:27.529Z,24.58
2018-02-21T16:11:59.647Z,24.54
2018-02-21T16:12:31.754Z,24.46
2018-02-21T16:13:03.860Z,24.58
2018-02-21T16:13:35.969Z,24.46
2018-02-21T16:14:08.093Z,24.52
2018-02-21T16:14:40.148Z,24.46
2018-02-21T16:15:12.237Z,24.52
2018-02-21T16:15:44.315Z,24.54
2018-02-21T16:16:16.422Z,24.51
2018-02-21T16:16:48.530Z,24.44
2018-02-21T16:17:20.615Z,24.46
2018-02-21T16:17:52.705Z,24.4
2018-02-21T16:18:24.805Z,24.37
2018-02-21T16:18:56.881Z,24.37
2018-02-21T16:20:48.377Z,24.39
2018-02-21T16:21:20.481Z,24.29
2018-02-21T16:21:52.579Z,24.34
2018-02-21T16:22:24.697Z,24.39
2018-02-21T16:22:56.799Z,24.32
2018-02-21T16:23:29.837Z,24.32
2018-02-21T16:25:21.205Z,24.32
2018-02-21T16:25:53.288Z,24.29
2018-02-21T16:26:25.399Z,24.26
2018-02-21T16:28:16.960Z,24.27
2018-02-21T16:28:49.066Z,24.24
2018-02-21T16:29:21.150Z,24.24
2018-02-21T16:29:53.270Z,24.22
2018-02-21T16:30:25.376Z,24.27
2018-02-21T16:30:57.490Z,24.26
2018-02-21T16:31:29.601Z,24.24
2018-02-21T16:32:01.709Z,24.21
2018-02-21T16:32:33.811Z,24.17
2018-02-21T16:33:05.926Z,24.26
2018-02-21T16:33:38.040Z,24.21
2018-02-21T16:34:10.157Z,24.22
2018-02-21T16:34:42.227Z,24.22
2018-02-21T16:36:33.718Z,24.15
2018-02-21T16:37:05.811Z,24.14
2018-02-21T16:37:37.916Z,24.11
2018-02-21T16:38:09.996Z,24.15
2018-02-21T16:38:42.083Z,24.21
2018-02-21T16:39:14.184Z,24.09
2018-02-21T16:41:05.883Z,24.14
2018-02-21T16:41:37.977Z,24.15
2018-02-21T16:42:10.054Z,24.04
2018-02-21T16:42:42.119Z,24.12
2018-02-21T16:43:14.218Z,24.17
2018-02-21T16:43:46.313Z,24.14
2018-02-21T16:44:18.357Z,24.12
2018-02-21T16:44:50.475Z,24.07
2018-02-21T16:45:22.586Z,24.08
2018-02-21T16:45:54.669Z,24.08
2018-02-21T16:46:26.773Z,24.07
2018-02-21T16:46:58.888Z,24.08
2018-02-21T16:47:30.973Z,24.09
2018-02-21T16:48:03.073Z,24.08
2018-02-21T16:48:35.189Z,24.09
2018-02-21T16:49:07.301Z,24.09
2018-02-21T16:49:39.387Z,24.08
2018-02-21T16:50:11.495Z,24.08
2018-02-21T16:50:43.606Z,24.11
2018-02-21T16:51:15.729Z,24.02
2018-02-21T16:51:47.830Z,23.97
2018-02-21T16:53:39.381Z,24
2018-02-21T16:54:11.474Z,24.02
2018-02-21T16:54:43.577Z,24.07
2018-02-21T16:55:15.665Z,24.02
2018-02-21T16:55:47.734Z,23.99
2018-02-21T16:56:19.847Z,24.02
2018-02-21T16:58:11.224Z,23.93
2018-02-21T16:58:43.308Z,24
2018-02-21T16:59:15.398Z,23.94
2018-02-21T16:59:47.498Z,23.96
2018-02-21T17:00:19.586Z,24
2018-02-21T17:00:51.684Z,24.03
2018-02-21T17:01:23.796Z,24
2018-02-21T17:01:55.914Z,24.04
2018-02-21T17:02:28.023Z,23.97
2018-02-21T17:03:00.141Z,24
2018-02-21T17:03:32.253Z,24.04
2018-02-21T17:04:04.341Z,24
2018-02-21T17:04:36.436Z,24
2018-02-21T17:05:08.677Z,24
2018-02-21T17:05:40.738Z,23.99
2018-02-21T17:07:32.231Z,24
2018-02-21T17:08:04.080Z,23.89
2018-02-21T17:08:36.171Z,23.92
2018-02-21T17:09:08.266Z,23.97
2018-02-21T17:09:40.364Z,23.93
2018-02-21T17:10:12.451Z,23.97
2018-02-21T17:10:44.567Z,23.94
2018-02-21T17:11:16.669Z,24.02
2018-02-21T17:11:48.787Z,23.92
2018-02-21T17:12:20.891Z,23.99
2018-02-21T17:14:12.654Z,23.93
2018-02-21T17:16:04.242Z,23.9
2018-02-21T17:16:36.344Z,23.93
2018-02-21T17:17:08.458Z,23.97
2018-02-21T17:17:40.564Z,23.87
2018-02-21T17:18:12.696Z,23.93
2018-02-21T17:18:44.801Z,23.89
2018-02-21T17:19:16.912Z,23.92
2018-02-21T17:19:49.010Z,23.89
2018-02-21T17:20:21.111Z,23.92
2018-02-21T17:20:53.201Z,23.93
2018-02-21T17:21:25.314Z,23.94
2018-02-21T17:21:57.403Z,23.87
2018-02-21T17:23:48.748Z,23.77
2018-02-21T17:25:40.495Z,23.77
2018-02-21T17:26:12.583Z,23.79
2018-02-21T17:26:44.688Z,23.79
2018-02-21T17:27:16.782Z,23.87
2018-02-21T17:27:48.887Z,23.87
2018-02-21T17:28:21.005Z,23.87
2018-02-21T17:28:53.104Z,23.77
2018-02-21T17:29:25.156Z,23.93
2018-02-21T17:29:57.200Z,23.78
2018-02-21T17:31:48.836Z,23.81
2018-02-21T17:32:20.901Z,23.75
2018-02-21T17:32:52.995Z,23.84
2018-02-21T17:33:25.108Z,23.78
2018-02-21T17:33:57.217Z,23.77
2018-02-21T17:34:29.285Z,23.87
2018-02-21T17:35:01.395Z,23.82
2018-02-21T17:35:33.511Z,23.89
2018-02-21T17:36:05.596Z,23.84
2018-02-21T17:36:37.682Z,23.82
2018-02-21T17:37:09.766Z,23.85
2018-02-21T17:37:41.874Z,23.82
2018-02-21T17:38:13.980Z,23.84
2018-02-21T17:38:46.100Z,23.77
2018-02-21T17:39:18.201Z,23.72
2018-02-21T17:39:50.324Z,23.85
2018-02-21T17:40:22.419Z,23.82
2018-02-21T17:40:54.508Z,23.84
2018-02-21T17:41:26.622Z,23.82
2018-02-21T17:41:58.725Z,23.77
2018-02-21T17:42:30.833Z,23.81
2018-02-21T17:44:22.257Z,23.82
2018-02-21T17:44:54.361Z,23.75
2018-02-21T17:45:26.442Z,23.81
2018-02-21T17:45:58.552Z,23.75
2018-02-21T17:46:30.649Z,23.89
2018-02-21T17:47:02.766Z,23.78
2018-02-21T17:47:34.861Z,23.78
2018-02-21T17:49:26.194Z,23.79
2018-02-21T17:49:58.289Z,23.74
2018-02-21T17:50:30.380Z,23.75
2018-02-21T17:51:02.475Z,23.82
2018-02-21T17:51:34.588Z,23.78
2018-02-21T17:52:06.671Z,23.82
2018-02-21T17:52:38.770Z,23.75
2018-02-21T17:53:10.871Z,23.79
2018-02-21T17:53:42.991Z,23.77
2018-02-21T17:54:15.102Z,23.82
2018-02-21T17:54:47.216Z,23.82
2018-02-21T17:55:19.307Z,23.77
2018-02-21T17:57:10.779Z,23.72
2018-02-21T17:57:42.881Z,23.77
2018-02-21T18:00:54.246Z,23.77
2018-02-21T18:01:26.360Z,23.82
2018-02-21T18:01:58.446Z,23.75
2018-02-21T18:02:30.571Z,23.77
2018-02-21T18:03:02.657Z,23.78
2018-02-21T18:03:34.734Z,23.77
2018-02-21T18:04:06.826Z,23.82
2018-02-21T18:05:58.350Z,23.78
2018-02-21T18:06:30.443Z,23.75
2018-02-21T18:07:02.547Z,23.7
2018-02-21T18:07:34.648Z,23.79
2018-02-21T18:08:06.751Z,23.75
2018-02-21T18:08:38.862Z,23.77
2018-02-21T18:09:10.948Z,23.78
2018-02-21T18:09:43.047Z,23.77
2018-02-21T18:10:15.128Z,23.74
2018-02-21T18:10:47.220Z,23.78
2018-02-21T18:11:19.318Z,23.78
2018-02-21T18:11:51.429Z,23.79
2018-02-21T18:13:42.946Z,23.74
2018-02-21T18:14:15.044Z,23.75
2018-02-21T18:14:47.153Z,23.75
2018-02-21T18:16:38.863Z,23.64
2018-02-21T18:17:10.953Z,23.71
2018-02-21T18:17:43.066Z,23.72
2018-02-21T18:18:15.175Z,23.72
2018-02-21T18:18:47.277Z,23.75
2018-02-21T18:19:19.373Z,23.71
2018-02-21T18:19:51.478Z,23.71
2018-02-21T18:20:23.588Z,23.75
2018-02-21T18:22:15.194Z,23.7
2018-02-21T18:22:47.262Z,23.72
2018-02-21T18:23:19.354Z,23.74
2018-02-21T18:25:11.030Z,23.63
2018-02-21T18:27:02.531Z,23.67
2018-02-21T18:27:34.629Z,23.7
2018-02-21T18:28:06.701Z,23.7
2018-02-21T18:28:38.800Z,23.74
2018-02-21T18:29:10.894Z,23.72
2018-02-21T18:29:42.998Z,23.72
2018-02-21T18:30:15.106Z,23.72
2018-02-21T18:30:47.206Z,23.63
2018-02-21T18:31:19.314Z,23.75
2018-02-21T18:31:51.386Z,23.74
2018-02-21T18:32:23.502Z,23.71
2018-02-21T18:34:15.215Z,23.75
2018-02-21T18:34:47.324Z,23.75
2018-02-21T18:35:19.418Z,23.75
2018-02-21T18:37:11.039Z,23.74
2018-02-21T18:37:43.157Z,23.77
2018-02-21T18:38:15.269Z,23.74
2018-02-21T18:38:47.339Z,23.81
2018-02-21T18:39:19.416Z,23.75
2018-02-21T18:39:51.490Z,23.77
2018-02-21T18:40:23.576Z,23.77
2018-02-21T18:40:55.686Z,23.77
2018-02-21T18:41:27.789Z,23.75
2018-02-21T18:41:59.908Z,23.77
2018-02-21T18:42:31.999Z,23.74
2018-02-21T18:43:04.148Z,23.78
2018-02-21T18:43:36.216Z,23.75
2018-02-21T18:44:08.333Z,23.78
2018-02-21T18:44:40.434Z,23.75
2018-02-21T18:45:12.540Z,23.74
2018-02-21T18:45:44.657Z,23.77
2018-02-21T18:46:16.751Z,23.81
2018-02-21T18:46:48.839Z,23.79
2018-02-21T18:47:20.947Z,23.79
2018-02-21T18:47:53.037Z,23.84
2018-02-21T18:48:25.124Z,23.82
2018-02-21T18:48:57.209Z,23.82
2018-02-21T18:49:29.319Z,23.78
2018-02-21T18:50:01.406Z,23.82
2018-02-21T18:50:33.530Z,23.82
2018-02-21T18:51:05.624Z,23.84
2018-02-21T18:52:57.045Z,23.77
2018-02-21T18:53:29.138Z,23.84
2018-02-21T18:54:01.251Z,23.84
2018-02-21T18:54:33.342Z,23.81
2018-02-21T18:55:05.420Z,23.78
2018-02-21T18:56:56.781Z,23.75
2018-02-21T18:57:28.886Z,23.84
2018-02-21T18:58:01.006Z,23.78
2018-02-21T18:58:33.103Z,23.84
2018-02-21T18:59:05.218Z,23.79
2018-02-21T18:59:37.319Z,23.85
2018-02-21T19:00:09.428Z,23.82
2018-02-21T19:00:41.510Z,23.77
2018-02-21T19:01:13.617Z,23.85
2018-02-21T19:01:45.720Z,23.81
2018-02-21T19:02:17.804Z,23.89
2018-02-21T19:02:49.862Z,23.85
2018-02-21T19:03:21.961Z,23.84
2018-02-21T19:05:13.387Z,23.84
2018-02-21T19:05:45.491Z,23.81
2018-02-21T19:06:17.595Z,23.81
2018-02-21T19:06:49.707Z,23.82
2018-02-21T19:08:41.305Z,23.78
2018-02-21T19:09:13.415Z,23.79
2018-02-21T19:11:04.730Z,23.89
2018-02-21T19:11:36.816Z,23.87
2018-02-21T19:12:08.925Z,23.85
2018-02-21T19:12:41.032Z,23.81
2018-02-21T19:14:32.747Z,23.82
2018-02-21T19:16:24.554Z,23.89
2018-02-21T19:16:56.666Z,23.84
2018-02-21T19:17:28.774Z,23.75
2018-02-21T19:18:00.884Z,23.85
2018-02-21T19:18:32.990Z,23.84
2018-02-21T19:19:05.089Z,23.79
2018-02-21T19:19:37.176Z,23.77
2018-02-21T19:20:09.265Z,23.82
2018-02-21T19:20:41.363Z,23.78
2018-02-21T19:21:13.442Z,23.84
2018-02-21T19:21:45.536Z,23.81
2018-02-21T19:22:17.648Z,23.85
2018-02-21T19:22:49.713Z,23.77
2018-02-21T19:23:21.820Z,23.84
2018-02-21T19:23:53.910Z,23.75
2018-02-21T19:24:26.019Z,23.78
2018-02-21T19:24:58.114Z,23.84
2018-02-21T19:25:30.221Z,23.84
2018-02-21T19:26:02.326Z,23.81
2018-02-21T19:26:34.381Z,23.81
2018-02-21T19:27:06.420Z,23.79
2018-02-21T19:27:38.496Z,23.85
2018-02-21T19:28:10.581Z,23.79
2018-02-21T19:28:42.636Z,23.75
2018-02-21T19:29:14.729Z,23.74
2018-02-21T19:31:06.230Z,23.85
2018-02-21T19:31:38.309Z,23.75
2018-02-21T19:32:10.399Z,23.79
2018-02-21T19:32:42.488Z,23.81
2018-02-21T19:33:14.591Z,23.82
2018-02-21T19:33:46.667Z,23.84
2018-02-21T19:34:18.757Z,23.84
2018-02-21T19:34:50.873Z,23.85
2018-02-21T19:35:22.974Z,23.81
2018-02-21T19:35:55.083Z,23.78
2018-02-21T19:36:27.176Z,23.77
2018-02-21T19:36:59.282Z,23.85
2018-02-21T19:37:31.374Z,23.87
2018-02-21T19:38:03.465Z,23.84
2018-02-21T19:38:35.565Z,23.77
2018-02-21T19:39:07.645Z,23.82
2018-02-21T19:39:39.739Z,23.84
2018-02-21T19:40:11.834Z,23.85
2018-02-21T19:43:22.575Z,23.81
2018-02-21T19:43:54.660Z,23.79
2018-02-21T19:44:26.711Z,23.84
2018-02-21T19:44:58.797Z,23.84
2018-02-21T19:45:30.946Z,23.78
2018-02-21T19:46:03.072Z,23.81
2018-02-21T19:46:35.150Z,23.84
2018-02-21T19:47:07.254Z,23.82
2018-02-21T19:47:39.390Z,23.85
2018-02-21T19:48:11.481Z,23.84
2018-02-21T19:48:43.547Z,23.84
2018-02-21T19:49:15.653Z,23.84
2018-02-21T19:49:47.753Z,23.82
2018-02-21T19:50:19.832Z,23.85
2018-02-21T19:50:51.948Z,23.77
2018-02-21T19:51:24.052Z,23.72
2018-02-21T19:53:15.416Z,23.77
2018-02-21T19:55:06.926Z,23.81
2018-02-21T19:55:39.032Z,23.79
2018-02-21T19:56:11.132Z,23.85
2018-02-21T19:56:43.239Z,23.84
2018-02-21T19:57:15.343Z,23.79
2018-02-21T19:57:47.444Z,23.82
2018-02-21T19:58:19.534Z,23.82
2018-02-21T19:58:51.616Z,23.75
2018-02-21T19:59:23.726Z,23.79
2018-02-21T19:59:55.818Z,23.79
2018-02-21T20:00:27.936Z,23.78
2018-02-21T20:03:38.884Z,23.75
2018-02-21T20:08:09.481Z,23.72
2018-02-21T20:08:41.596Z,23.74
2018-02-21T20:09:13.679Z,23.72
2018-02-21T20:09:45.818Z,23.78
2018-02-21T20:11:37.324Z,23.71
2018-02-21T20:12:09.428Z,23.78
2018-02-21T20:12:41.531Z,23.74
2018-02-21T20:13:13.612Z,23.77
2018-02-21T20:13:45.718Z,23.78
2018-02-21T20:14:17.790Z,23.74
2018-02-21T20:16:09.530Z,23.72
2018-02-21T20:16:41.682Z,23.79
2018-02-21T20:18:33.275Z,23.78
2018-02-21T20:19:05.375Z,23.79
2018-02-21T20:19:37.476Z,23.77
2018-02-21T20:20:09.583Z,23.77
2018-02-21T20:20:41.658Z,23.75
2018-02-21T20:22:33.263Z,23.74
2018-02-21T20:23:05.358Z,23.79
2018-02-21T20:23:37.459Z,23.78
2018-02-21T20:24:09.551Z,23.77
2018-02-21T20:24:41.659Z,23.75
2018-02-21T20:25:13.761Z,23.74
2018-02-21T20:25:45.868Z,23.77
2018-02-21T20:27:37.436Z,23.77
2018-02-21T20:28:09.539Z,23.74
2018-02-21T20:28:41.643Z,23.78
2018-02-21T20:29:13.750Z,23.78